sensor_id;sensor_type;location;lat;lon;timestamp;P1;durP1;ratioP1;P2;durP2;ratioP2
12059;SDS011;6091;51.432;6.880;2022-12-07T00:01:41;0.90;;;0.90;;
12059;SDS011;6091;51.432;6.880;2022-12-07T00:04:11;1.13;;;1.00;;
12059;SDS011;6091;51.432;6.880;2022-12-07T00:06:41;0.98;;;0.98;;
12059;SDS011;6091;51.432;6.880;2022-12-07T00:09:13;0.80;;;0.80;;
12059;SDS011;6091;51.432;6.880;2022-12-07T00:11:43;0.80;;;0.80;;
12059;SDS011;6091;51.432;6.880;2022-12-07T00:14:12;1.15;;;1.10;;
12059;SDS011;6091;51.432;6.880;2022-12-07T00:16:42;1.00;;;1.00;;
12059;SDS011;6091;51.432;6.880;2022-12-07T00:19:11;1.17;;;1.08;;
12059;SDS011;6091;51.432;6.880;2022-12-07T00:21:43;1.00;;;0.90;;
12059;SDS011;6091;51.432;6.880;2022-12-07T00:24:10;0.90;;;0.90;;
12059;SDS011;6091;51.432;6.880;2022-12-07T00:26:39;1.10;;;1.00;;
12059;SDS011;6091;51.432;6.880;2022-12-07T00:31:42;1.00;;;1.00;;
12059;SDS011;6091;51.432;6.880;2022-12-07T00:34:16;1.20;;;1.10;;
12059;SDS011;6091;51.432;6.880;2022-12-07T00:36:46;0.98;;;0.98;;
12059;SDS011;6091;51.432;6.880;2022-12-07T00:39:14;1.17;;;1.08;;
12059;SDS011;6091;51.432;6.880;2022-12-07T00:41:41;0.77;;;0.75;;
12059;SDS011;6091;51.432;6.880;2022-12-07T00:44:09;1.02;;;0.90;;
12059;SDS011;6091;51.432;6.880;2022-12-07T00:46:36;0.82;;;0.82;;
12059;SDS011;6091;51.432;6.880;2022-12-07T00:49:03;1.02;;;0.95;;
12059;SDS011;6091;51.432;6.880;2022-12-07T00:51:30;0.85;;;0.85;;
12059;SDS011;6091;51.432;6.880;2022-12-07T00:53:56;1.38;;;1.00;;
12059;SDS011;6091;51.432;6.880;2022-12-07T00:56:25;1.05;;;1.05;;
12059;SDS011;6091;51.432;6.880;2022-12-07T00:58:55;1.00;;;0.90;;
12059;SDS011;6091;51.432;6.880;2022-12-07T01:01:26;0.73;;;0.73;;
12059;SDS011;6091;51.432;6.880;2022-12-07T01:03:57;0.73;;;0.73;;
12059;SDS011;6091;51.432;6.880;2022-12-07T01:06:27;0.90;;;0.90;;
12059;SDS011;6091;51.432;6.880;2022-12-07T01:08:55;0.90;;;0.90;;
12059;SDS011;6091;51.432;6.880;2022-12-07T01:11:24;0.80;;;0.80;;
12059;SDS011;6091;51.432;6.880;2022-12-07T01:13:55;1.20;;;1.10;;
12059;SDS011;6091;51.432;6.880;2022-12-07T01:16:25;0.93;;;0.90;;
12059;SDS011;6091;51.432;6.880;2022-12-07T01:18:56;0.90;;;0.90;;
12059;SDS011;6091;51.432;6.880;2022-12-07T01:21:25;1.00;;;1.00;;
12059;SDS011;6091;51.432;6.880;2022-12-07T01:24:02;0.80;;;0.80;;
12059;SDS011;6091;51.432;6.880;2022-12-07T01:26:32;1.00;;;0.90;;
12059;SDS011;6091;51.432;6.880;2022-12-07T01:29:00;0.88;;;0.88;;
12059;SDS011;6091;51.432;6.880;2022-12-07T01:31:27;0.88;;;0.88;;
12059;SDS011;6091;51.432;6.880;2022-12-07T01:33:55;0.80;;;0.80;;
12059;SDS011;6091;51.432;6.880;2022-12-07T01:36:25;0.80;;;0.80;;
12059;SDS011;6091;51.432;6.880;2022-12-07T01:38:59;0.98;;;0.90;;
12059;SDS011;6091;51.432;6.880;2022-12-07T01:41:31;0.90;;;0.90;;
12059;SDS011;6091;51.432;6.880;2022-12-07T01:47:06;0.85;;;0.85;;
12059;SDS011;6091;51.432;6.880;2022-12-07T01:49:35;0.98;;;0.90;;
12059;SDS011;6091;51.432;6.880;2022-12-07T01:52:31;0.80;;;0.80;;
12059;SDS011;6091;51.432;6.880;2022-12-07T01:55:02;0.75;;;0.75;;
12059;SDS011;6091;51.432;6.880;2022-12-07T01:57:38;0.73;;;0.73;;
12059;SDS011;6091;51.432;6.880;2022-12-07T02:00:11;0.85;;;0.85;;
12059;SDS011;6091;51.432;6.880;2022-12-07T02:02:47;0.70;;;0.70;;
12059;SDS011;6091;51.432;6.880;2022-12-07T02:05:24;0.82;;;0.82;;
12059;SDS011;6091;51.432;6.880;2022-12-07T02:07:53;0.80;;;0.80;;
12059;SDS011;6091;51.432;6.880;2022-12-07T02:15:34;0.80;;;0.80;;
12059;SDS011;6091;51.432;6.880;2022-12-07T02:18:21;1.52;;;0.80;;
12059;SDS011;6091;51.432;6.880;2022-12-07T02:24:09;0.80;;;0.80;;
12059;SDS011;6091;51.432;6.880;2022-12-07T02:27:36;0.70;;;0.70;;
12059;SDS011;6091;51.432;6.880;2022-12-07T02:35:38;0.80;;;0.80;;
12059;SDS011;6091;51.432;6.880;2022-12-07T02:38:31;1.00;;;0.90;;
12059;SDS011;6091;51.432;6.880;2022-12-07T02:41:07;0.80;;;0.80;;
12059;SDS011;6091;51.432;6.880;2022-12-07T02:43:43;1.00;;;0.90;;
12059;SDS011;6091;51.432;6.880;2022-12-07T02:46:20;0.85;;;0.85;;
12059;SDS011;6091;51.432;6.880;2022-12-07T02:48:54;0.70;;;0.70;;
12059;SDS011;6091;51.432;6.880;2022-12-07T02:51:22;0.82;;;0.82;;
12059;SDS011;6091;51.432;6.880;2022-12-07T02:53:49;0.98;;;0.90;;
12059;SDS011;6091;51.432;6.880;2022-12-07T02:59:15;0.80;;;0.80;;
12059;SDS011;6091;51.432;6.880;2022-12-07T03:10:48;0.65;;;0.65;;
12059;SDS011;6091;51.432;6.880;2022-12-07T03:13:48;0.80;;;0.80;;
12059;SDS011;6091;51.432;6.880;2022-12-07T03:16:50;0.73;;;0.73;;
12059;SDS011;6091;51.432;6.880;2022-12-07T03:19:26;0.80;;;0.80;;
12059;SDS011;6091;51.432;6.880;2022-12-07T03:21:58;0.70;;;0.70;;
12059;SDS011;6091;51.432;6.880;2022-12-07T03:24:34;0.88;;;0.88;;
12059;SDS011;6091;51.432;6.880;2022-12-07T03:27:16;0.70;;;0.70;;
12059;SDS011;6091;51.432;6.880;2022-12-07T03:30:10;0.80;;;0.80;;
12059;SDS011;6091;51.432;6.880;2022-12-07T03:35:40;0.80;;;0.80;;
12059;SDS011;6091;51.432;6.880;2022-12-07T03:43:48;0.82;;;0.82;;
12059;SDS011;6091;51.432;6.880;2022-12-07T03:46:34;0.75;;;0.75;;
12059;SDS011;6091;51.432;6.880;2022-12-07T03:49:12;0.73;;;0.73;;
12059;SDS011;6091;51.432;6.880;2022-12-07T03:51:51;0.82;;;0.80;;
12059;SDS011;6091;51.432;6.880;2022-12-07T03:54:34;0.88;;;0.88;;
12059;SDS011;6091;51.432;6.880;2022-12-07T03:57:11;0.70;;;0.70;;
12059;SDS011;6091;51.432;6.880;2022-12-07T03:59:39;0.95;;;0.95;;
12059;SDS011;6091;51.432;6.880;2022-12-07T04:02:11;0.80;;;0.80;;
12059;SDS011;6091;51.432;6.880;2022-12-07T04:04:40;0.60;;;0.60;;
12059;SDS011;6091;51.432;6.880;2022-12-07T04:07:09;0.68;;;0.68;;
12059;SDS011;6091;51.432;6.880;2022-12-07T04:09:37;0.70;;;0.70;;
12059;SDS011;6091;51.432;6.880;2022-12-07T04:12:04;0.93;;;0.90;;
12059;SDS011;6091;51.432;6.880;2022-12-07T04:14:31;0.75;;;0.75;;
12059;SDS011;6091;51.432;6.880;2022-12-07T04:16:58;0.70;;;0.70;;
12059;SDS011;6091;51.432;6.880;2022-12-07T04:19:26;0.98;;;0.90;;
12059;SDS011;6091;51.432;6.880;2022-12-07T04:22:00;0.75;;;0.75;;
12059;SDS011;6091;51.432;6.880;2022-12-07T04:24:29;0.70;;;0.70;;
12059;SDS011;6091;51.432;6.880;2022-12-07T04:26:57;0.90;;;0.90;;
12059;SDS011;6091;51.432;6.880;2022-12-07T04:29:26;1.10;;;0.80;;
12059;SDS011;6091;51.432;6.880;2022-12-07T04:31:54;1.00;;;0.90;;
12059;SDS011;6091;51.432;6.880;2022-12-07T04:34:21;0.70;;;0.70;;
12059;SDS011;6091;51.432;6.880;2022-12-07T04:36:48;0.60;;;0.60;;
12059;SDS011;6091;51.432;6.880;2022-12-07T04:39:22;1.00;;;1.00;;
12059;SDS011;6091;51.432;6.880;2022-12-07T04:41:52;0.80;;;0.80;;
12059;SDS011;6091;51.432;6.880;2022-12-07T04:44:20;0.68;;;0.68;;
12059;SDS011;6091;51.432;6.880;2022-12-07T04:46:48;0.57;;;0.57;;
12059;SDS011;6091;51.432;6.880;2022-12-07T04:49:16;0.75;;;0.75;;
12059;SDS011;6091;51.432;6.880;2022-12-07T04:51:44;0.68;;;0.68;;
12059;SDS011;6091;51.432;6.880;2022-12-07T04:54:14;0.60;;;0.60;;
12059;SDS011;6091;51.432;6.880;2022-12-07T04:56:42;0.90;;;0.90;;
12059;SDS011;6091;51.432;6.880;2022-12-07T04:59:12;0.70;;;0.70;;
12059;SDS011;6091;51.432;6.880;2022-12-07T05:01:40;0.65;;;0.65;;
12059;SDS011;6091;51.432;6.880;2022-12-07T05:04:08;0.93;;;0.93;;
12059;SDS011;6091;51.432;6.880;2022-12-07T05:06:35;0.70;;;0.70;;
12059;SDS011;6091;51.432;6.880;2022-12-07T05:09:03;0.63;;;0.63;;
12059;SDS011;6091;51.432;6.880;2022-12-07T05:11:33;0.88;;;0.80;;
12059;SDS011;6091;51.432;6.880;2022-12-07T05:14:10;0.88;;;0.88;;
12059;SDS011;6091;51.432;6.880;2022-12-07T05:16:48;0.75;;;0.70;;
12059;SDS011;6091;51.432;6.880;2022-12-07T05:19:17;0.70;;;0.70;;
12059;SDS011;6091;51.432;6.880;2022-12-07T05:21:45;0.60;;;0.60;;
12059;SDS011;6091;51.432;6.880;2022-12-07T05:24:13;0.70;;;0.70;;
12059;SDS011;6091;51.432;6.880;2022-12-07T05:26:42;0.70;;;0.70;;
12059;SDS011;6091;51.432;6.880;2022-12-07T05:29:11;0.70;;;0.70;;
12059;SDS011;6091;51.432;6.880;2022-12-07T05:31:41;0.60;;;0.60;;
12059;SDS011;6091;51.432;6.880;2022-12-07T05:34:09;0.70;;;0.70;;
12059;SDS011;6091;51.432;6.880;2022-12-07T05:36:36;0.63;;;0.60;;
12059;SDS011;6091;51.432;6.880;2022-12-07T05:39:03;0.80;;;0.80;;
12059;SDS011;6091;51.432;6.880;2022-12-07T05:41:30;0.73;;;0.73;;
12059;SDS011;6091;51.432;6.880;2022-12-07T05:44:15;0.75;;;0.75;;
12059;SDS011;6091;51.432;6.880;2022-12-07T05:46:42;0.70;;;0.68;;
12059;SDS011;6091;51.432;6.880;2022-12-07T05:49:09;0.70;;;0.70;;
12059;SDS011;6091;51.432;6.880;2022-12-07T05:51:36;1.00;;;0.90;;
12059;SDS011;6091;51.432;6.880;2022-12-07T05:54:03;0.70;;;0.70;;
12059;SDS011;6091;51.432;6.880;2022-12-07T05:56:30;0.80;;;0.80;;
12059;SDS011;6091;51.432;6.880;2022-12-07T05:58:57;0.80;;;0.80;;
12059;SDS011;6091;51.432;6.880;2022-12-07T06:01:42;0.70;;;0.70;;
12059;SDS011;6091;51.432;6.880;2022-12-07T06:04:09;0.70;;;0.65;;
12059;SDS011;6091;51.432;6.880;2022-12-07T06:06:37;0.70;;;0.70;;
12059;SDS011;6091;51.432;6.880;2022-12-07T06:09:04;0.80;;;0.80;;
12059;SDS011;6091;51.432;6.880;2022-12-07T06:11:31;0.80;;;0.80;;
12059;SDS011;6091;51.432;6.880;2022-12-07T06:14:17;1.20;;;0.90;;
12059;SDS011;6091;51.432;6.880;2022-12-07T06:16:44;0.63;;;0.63;;
12059;SDS011;6091;51.432;6.880;2022-12-07T06:19:11;0.68;;;0.68;;
12059;SDS011;6091;51.432;6.880;2022-12-07T06:21:38;0.90;;;0.90;;
12059;SDS011;6091;51.432;6.880;2022-12-07T06:24:05;0.80;;;0.70;;
12059;SDS011;6091;51.432;6.880;2022-12-07T06:26:33;0.80;;;0.80;;
12059;SDS011;6091;51.432;6.880;2022-12-07T06:29:00;0.80;;;0.80;;
12059;SDS011;6091;51.432;6.880;2022-12-07T06:31:28;0.80;;;0.70;;
12059;SDS011;6091;51.432;6.880;2022-12-07T06:33:58;0.88;;;0.88;;
12059;SDS011;6091;51.432;6.880;2022-12-07T06:36:30;0.80;;;0.70;;
12059;SDS011;6091;51.432;6.880;2022-12-07T06:38:57;0.80;;;0.80;;
12059;SDS011;6091;51.432;6.880;2022-12-07T06:41:24;0.90;;;0.90;;
12059;SDS011;6091;51.432;6.880;2022-12-07T06:43:51;0.80;;;0.80;;
12059;SDS011;6091;51.432;6.880;2022-12-07T06:46:21;0.63;;;0.60;;
12059;SDS011;6091;51.432;6.880;2022-12-07T06:48:49;0.60;;;0.60;;
12059;SDS011;6091;51.432;6.880;2022-12-07T06:51:16;1.10;;;0.90;;
12059;SDS011;6091;51.432;6.880;2022-12-07T06:53:43;0.75;;;0.75;;
12059;SDS011;6091;51.432;6.880;2022-12-07T06:56:11;0.82;;;0.82;;
12059;SDS011;6091;51.432;6.880;2022-12-07T06:58:38;0.80;;;0.80;;
12059;SDS011;6091;51.432;6.880;2022-12-07T07:01:13;0.80;;;0.80;;
12059;SDS011;6091;51.432;6.880;2022-12-07T07:03:44;0.70;;;0.70;;
12059;SDS011;6091;51.432;6.880;2022-12-07T07:06:12;0.63;;;0.63;;
12059;SDS011;6091;51.432;6.880;2022-12-07T07:08:41;0.70;;;0.70;;
12059;SDS011;6091;51.432;6.880;2022-12-07T07:11:08;0.80;;;0.80;;
12059;SDS011;6091;51.432;6.880;2022-12-07T07:13:36;0.68;;;0.68;;
12059;SDS011;6091;51.432;6.880;2022-12-07T07:16:03;0.95;;;0.68;;
12059;SDS011;6091;51.432;6.880;2022-12-07T07:18:32;1.05;;;0.85;;
12059;SDS011;6091;51.432;6.880;2022-12-07T07:20:59;1.75;;;1.05;;
12059;SDS011;6091;51.432;6.880;2022-12-07T07:23:27;0.93;;;0.82;;
12059;SDS011;6091;51.432;6.880;2022-12-07T07:25:54;0.85;;;0.85;;
12059;SDS011;6091;51.432;6.880;2022-12-07T07:28:22;0.95;;;0.85;;
12059;SDS011;6091;51.432;6.880;2022-12-07T07:30:49;0.60;;;0.60;;
12059;SDS011;6091;51.432;6.880;2022-12-07T07:33:16;1.10;;;0.80;;
12059;SDS011;6091;51.432;6.880;2022-12-07T07:35:43;0.80;;;0.80;;
12059;SDS011;6091;51.432;6.880;2022-12-07T07:38:10;0.82;;;0.70;;
12059;SDS011;6091;51.432;6.880;2022-12-07T07:40:37;1.35;;;0.80;;
12059;SDS011;6091;51.432;6.880;2022-12-07T07:43:04;0.80;;;0.80;;
12059;SDS011;6091;51.432;6.880;2022-12-07T07:45:31;0.80;;;0.80;;
12059;SDS011;6091;51.432;6.880;2022-12-07T07:47:58;0.95;;;0.80;;
12059;SDS011;6091;51.432;6.880;2022-12-07T07:50:25;1.23;;;1.05;;
12059;SDS011;6091;51.432;6.880;2022-12-07T07:52:52;1.00;;;0.73;;
12059;SDS011;6091;51.432;6.880;2022-12-07T07:55:22;2.55;;;1.10;;
12059;SDS011;6091;51.432;6.880;2022-12-07T07:57:49;1.88;;;0.85;;
12059;SDS011;6091;51.432;6.880;2022-12-07T08:00:20;2.67;;;0.90;;
12059;SDS011;6091;51.432;6.880;2022-12-07T08:02:51;1.10;;;0.98;;
12059;SDS011;6091;51.432;6.880;2022-12-07T08:05:18;1.85;;;0.90;;
12059;SDS011;6091;51.432;6.880;2022-12-07T08:07:45;1.40;;;0.80;;
12059;SDS011;6091;51.432;6.880;2022-12-07T08:10:12;2.75;;;1.02;;
12059;SDS011;6091;51.432;6.880;2022-12-07T08:12:42;1.00;;;0.90;;
12059;SDS011;6091;51.432;6.880;2022-12-07T08:15:29;1.00;;;0.90;;
12059;SDS011;6091;51.432;6.880;2022-12-07T08:17:57;1.63;;;1.20;;
12059;SDS011;6091;51.432;6.880;2022-12-07T08:20:24;1.50;;;0.80;;
12059;SDS011;6091;51.432;6.880;2022-12-07T08:22:52;1.45;;;0.80;;
12059;SDS011;6091;51.432;6.880;2022-12-07T08:25:19;2.25;;;0.82;;
12059;SDS011;6091;51.432;6.880;2022-12-07T08:27:48;2.10;;;1.13;;
12059;SDS011;6091;51.432;6.880;2022-12-07T08:30:17;1.75;;;0.88;;
12059;SDS011;6091;51.432;6.880;2022-12-07T08:32:45;1.63;;;0.85;;
12059;SDS011;6091;51.432;6.880;2022-12-07T08:35:14;3.08;;;1.30;;
12059;SDS011;6091;51.432;6.880;2022-12-07T08:37:43;3.60;;;1.05;;
12059;SDS011;6091;51.432;6.880;2022-12-07T08:40:11;4.38;;;1.10;;
12059;SDS011;6091;51.432;6.880;2022-12-07T08:42:42;1.73;;;1.20;;
12059;SDS011;6091;51.432;6.880;2022-12-07T08:45:12;2.80;;;1.40;;
12059;SDS011;6091;51.432;6.880;2022-12-07T08:47:42;3.15;;;1.10;;
12059;SDS011;6091;51.432;6.880;2022-12-07T08:50:20;3.13;;;1.00;;
12059;SDS011;6091;51.432;6.880;2022-12-07T08:52:52;4.65;;;1.60;;
12059;SDS011;6091;51.432;6.880;2022-12-07T08:55:23;2.13;;;1.33;;
12059;SDS011;6091;51.432;6.880;2022-12-07T08:57:50;1.77;;;1.00;;
12059;SDS011;6091;51.432;6.880;2022-12-07T09:00:18;3.67;;;1.27;;
12059;SDS011;6091;51.432;6.880;2022-12-07T09:02:45;2.30;;;1.10;;
12059;SDS011;6091;51.432;6.880;2022-12-07T09:05:13;4.70;;;1.20;;
12059;SDS011;6091;51.432;6.880;2022-12-07T09:07:43;6.13;;;1.90;;
12059;SDS011;6091;51.432;6.880;2022-12-07T09:10:17;2.15;;;1.08;;
12059;SDS011;6091;51.432;6.880;2022-12-07T09:12:44;4.15;;;1.20;;
12059;SDS011;6091;51.432;6.880;2022-12-07T09:15:11;2.45;;;1.10;;
12059;SDS011;6091;51.432;6.880;2022-12-07T09:17:38;8.80;;;1.50;;
12059;SDS011;6091;51.432;6.880;2022-12-07T09:20:05;3.78;;;1.17;;
12059;SDS011;6091;51.432;6.880;2022-12-07T09:22:33;5.72;;;1.75;;
12059;SDS011;6091;51.432;6.880;2022-12-07T09:25:02;4.03;;;1.23;;
12059;SDS011;6091;51.432;6.880;2022-12-07T09:27:30;4.80;;;1.55;;
12059;SDS011;6091;51.432;6.880;2022-12-07T09:29:57;4.70;;;1.35;;
12059;SDS011;6091;51.432;6.880;2022-12-07T09:32:26;4.68;;;1.38;;
12059;SDS011;6091;51.432;6.880;2022-12-07T09:34:53;3.65;;;1.42;;
12059;SDS011;6091;51.432;6.880;2022-12-07T09:37:24;4.60;;;1.20;;
12059;SDS011;6091;51.432;6.880;2022-12-07T09:39:53;4.47;;;1.45;;
12059;SDS011;6091;51.432;6.880;2022-12-07T09:44:55;3.90;;;1.23;;
12059;SDS011;6091;51.432;6.880;2022-12-07T09:47:27;3.85;;;1.40;;
12059;SDS011;6091;51.432;6.880;2022-12-07T09:49:57;2.88;;;1.20;;
12059;SDS011;6091;51.432;6.880;2022-12-07T09:52:55;1.92;;;1.00;;
12059;SDS011;6091;51.432;6.880;2022-12-07T09:56:03;2.42;;;1.20;;
12059;SDS011;6091;51.432;6.880;2022-12-07T09:58:31;2.08;;;1.25;;
12059;SDS011;6091;51.432;6.880;2022-12-07T10:01:01;3.38;;;1.50;;
12059;SDS011;6091;51.432;6.880;2022-12-07T10:03:42;2.58;;;1.15;;
12059;SDS011;6091;51.432;6.880;2022-12-07T10:06:19;4.20;;;1.20;;
12059;SDS011;6091;51.432;6.880;2022-12-07T10:08:46;1.00;;;0.90;;
12059;SDS011;6091;51.432;6.880;2022-12-07T10:11:13;2.83;;;0.90;;
12059;SDS011;6091;51.432;6.880;2022-12-07T10:18:50;1.90;;;1.10;;
12059;SDS011;6091;51.432;6.880;2022-12-07T10:21:22;2.65;;;1.05;;
12059;SDS011;6091;51.432;6.880;2022-12-07T10:23:59;2.03;;;1.15;;
12059;SDS011;6091;51.432;6.880;2022-12-07T10:29:20;2.28;;;1.15;;
12059;SDS011;6091;51.432;6.880;2022-12-07T10:32:06;1.10;;;0.90;;
12059;SDS011;6091;51.432;6.880;2022-12-07T10:35:18;3.45;;;1.20;;
12059;SDS011;6091;51.432;6.880;2022-12-07T10:37:56;3.97;;;1.42;;
12059;SDS011;6091;51.432;6.880;2022-12-07T10:48:55;3.20;;;1.08;;
12059;SDS011;6091;51.432;6.880;2022-12-07T10:52:23;3.55;;;1.25;;
12059;SDS011;6091;51.432;6.880;2022-12-07T10:55:16;1.60;;;1.17;;
12059;SDS011;6091;51.432;6.880;2022-12-07T11:06:27;3.17;;;1.00;;
12059;SDS011;6091;51.432;6.880;2022-12-07T11:17:45;1.30;;;0.73;;
12059;SDS011;6091;51.432;6.880;2022-12-07T11:23:21;2.10;;;0.93;;
12059;SDS011;6091;51.432;6.880;2022-12-07T11:26:26;1.08;;;0.90;;
12059;SDS011;6091;51.432;6.880;2022-12-07T11:30:19;1.10;;;1.00;;
12059;SDS011;6091;51.432;6.880;2022-12-07T11:35:53;2.47;;;1.23;;
12059;SDS011;6091;51.432;6.880;2022-12-07T11:38:36;1.85;;;0.95;;
12059;SDS011;6091;51.432;6.880;2022-12-07T11:41:13;1.33;;;0.90;;
12059;SDS011;6091;51.432;6.880;2022-12-07T11:43:56;1.77;;;0.95;;
12059;SDS011;6091;51.432;6.880;2022-12-07T11:47:10;1.35;;;0.90;;
12059;SDS011;6091;51.432;6.880;2022-12-07T11:58:57;3.53;;;1.50;;
12059;SDS011;6091;51.432;6.880;2022-12-07T12:07:31;1.70;;;1.17;;
12059;SDS011;6091;51.432;6.880;2022-12-07T12:10:45;3.55;;;1.20;;
12059;SDS011;6091;51.432;6.880;2022-12-07T12:23:01;3.08;;;1.17;;
12059;SDS011;6091;51.432;6.880;2022-12-07T12:26:21;1.75;;;1.10;;
12059;SDS011;6091;51.432;6.880;2022-12-07T12:28:52;1.15;;;1.02;;
12059;SDS011;6091;51.432;6.880;2022-12-07T12:33:59;2.90;;;1.20;;
12059;SDS011;6091;51.432;6.880;2022-12-07T12:39:18;2.78;;;1.27;;
12059;SDS011;6091;51.432;6.880;2022-12-07T12:44:40;3.42;;;1.20;;
12059;SDS011;6091;51.432;6.880;2022-12-07T12:50:26;8.20;;;1.80;;
12059;SDS011;6091;51.432;6.880;2022-12-07T12:53:12;5.82;;;1.08;;
12059;SDS011;6091;51.432;6.880;2022-12-07T12:56:03;3.40;;;1.05;;
12059;SDS011;6091;51.432;6.880;2022-12-07T12:59:18;3.58;;;1.33;;
12059;SDS011;6091;51.432;6.880;2022-12-07T13:01:51;3.17;;;1.33;;
12059;SDS011;6091;51.432;6.880;2022-12-07T13:04:48;3.22;;;1.02;;
12059;SDS011;6091;51.432;6.880;2022-12-07T13:18:39;3.95;;;1.38;;
12059;SDS011;6091;51.432;6.880;2022-12-07T13:34:29;2.65;;;1.05;;
12059;SDS011;6091;51.432;6.880;2022-12-07T13:37:10;3.47;;;1.30;;
12059;SDS011;6091;51.432;6.880;2022-12-07T13:39:44;3.33;;;1.60;;
12059;SDS011;6091;51.432;6.880;2022-12-07T13:42:21;2.53;;;1.23;;
12059;SDS011;6091;51.432;6.880;2022-12-07T13:48:18;2.05;;;1.20;;
12059;SDS011;6091;51.432;6.880;2022-12-07T13:50:54;1.63;;;0.98;;
12059;SDS011;6091;51.432;6.880;2022-12-07T13:53:23;2.15;;;1.20;;
12059;SDS011;6091;51.432;6.880;2022-12-07T13:55:57;3.05;;;1.05;;
12059;SDS011;6091;51.432;6.880;2022-12-07T13:58:27;1.55;;;1.00;;
12059;SDS011;6091;51.432;6.880;2022-12-07T14:00:59;3.95;;;1.10;;
12059;SDS011;6091;51.432;6.880;2022-12-07T14:03:28;2.92;;;1.08;;
12059;SDS011;6091;51.432;6.880;2022-12-07T14:06:46;2.95;;;0.98;;
12059;SDS011;6091;51.432;6.880;2022-12-07T14:09:14;1.95;;;0.98;;
12059;SDS011;6091;51.432;6.880;2022-12-07T14:11:46;6.05;;;1.25;;
12059;SDS011;6091;51.432;6.880;2022-12-07T14:14:23;3.33;;;1.25;;
12059;SDS011;6091;51.432;6.880;2022-12-07T14:17:17;4.60;;;1.08;;
12059;SDS011;6091;51.432;6.880;2022-12-07T14:19:50;2.20;;;1.13;;
12059;SDS011;6091;51.432;6.880;2022-12-07T14:27:39;3.33;;;1.13;;
12059;SDS011;6091;51.432;6.880;2022-12-07T14:30:19;3.85;;;1.42;;
12059;SDS011;6091;51.432;6.880;2022-12-07T14:32:47;10.57;;;1.77;;
12059;SDS011;6091;51.432;6.880;2022-12-07T14:35:20;3.65;;;1.33;;
12059;SDS011;6091;51.432;6.880;2022-12-07T14:37:47;2.15;;;1.05;;
12059;SDS011;6091;51.432;6.880;2022-12-07T14:40:21;4.13;;;1.48;;
12059;SDS011;6091;51.432;6.880;2022-12-07T14:42:55;4.03;;;1.25;;
12059;SDS011;6091;51.432;6.880;2022-12-07T14:45:28;3.35;;;1.00;;
12059;SDS011;6091;51.432;6.880;2022-12-07T14:47:55;2.45;;;1.30;;
12059;SDS011;6091;51.432;6.880;2022-12-07T14:50:48;3.25;;;1.35;;
12059;SDS011;6091;51.432;6.880;2022-12-07T14:53:39;2.80;;;1.05;;
12059;SDS011;6091;51.432;6.880;2022-12-07T14:56:18;1.58;;;1.10;;
12059;SDS011;6091;51.432;6.880;2022-12-07T14:58:45;0.98;;;0.80;;
12059;SDS011;6091;51.432;6.880;2022-12-07T15:01:17;2.05;;;1.10;;
12059;SDS011;6091;51.432;6.880;2022-12-07T15:03:44;1.95;;;1.10;;
12059;SDS011;6091;51.432;6.880;2022-12-07T15:06:13;2.08;;;1.00;;
12059;SDS011;6091;51.432;6.880;2022-12-07T15:08:45;1.67;;;0.68;;
12059;SDS011;6091;51.432;6.880;2022-12-07T15:11:16;5.75;;;1.13;;
12059;SDS011;6091;51.432;6.880;2022-12-07T15:13:45;1.40;;;1.05;;
12059;SDS011;6091;51.432;6.880;2022-12-07T15:16:30;1.67;;;0.90;;
12059;SDS011;6091;51.432;6.880;2022-12-07T15:19:18;1.58;;;1.08;;
12059;SDS011;6091;51.432;6.880;2022-12-07T15:21:55;3.05;;;0.98;;
12059;SDS011;6091;51.432;6.880;2022-12-07T15:24:24;3.97;;;1.10;;
12059;SDS011;6091;51.432;6.880;2022-12-07T15:26:52;1.45;;;1.00;;
12059;SDS011;6091;51.432;6.880;2022-12-07T15:29:19;1.30;;;1.00;;
12059;SDS011;6091;51.432;6.880;2022-12-07T15:31:51;2.10;;;1.20;;
12059;SDS011;6091;51.432;6.880;2022-12-07T15:34:26;3.58;;;0.90;;
12059;SDS011;6091;51.432;6.880;2022-12-07T15:37:04;2.13;;;0.98;;
12059;SDS011;6091;51.432;6.880;2022-12-07T15:39:31;0.90;;;0.75;;
12059;SDS011;6091;51.432;6.880;2022-12-07T15:41:58;2.75;;;1.20;;
12059;SDS011;6091;51.432;6.880;2022-12-07T15:44:25;1.10;;;1.00;;
12059;SDS011;6091;51.432;6.880;2022-12-07T15:47:11;1.50;;;1.02;;
12059;SDS011;6091;51.432;6.880;2022-12-07T15:49:38;2.35;;;1.00;;
12059;SDS011;6091;51.432;6.880;2022-12-07T15:52:05;1.83;;;0.90;;
12059;SDS011;6091;51.432;6.880;2022-12-07T15:54:32;1.88;;;1.13;;
12059;SDS011;6091;51.432;6.880;2022-12-07T15:56:59;2.10;;;1.00;;
12059;SDS011;6091;51.432;6.880;2022-12-07T15:59:27;1.15;;;0.82;;
12059;SDS011;6091;51.432;6.880;2022-12-07T16:01:55;1.23;;;1.02;;
12059;SDS011;6091;51.432;6.880;2022-12-07T16:04:22;1.00;;;0.80;;
12059;SDS011;6091;51.432;6.880;2022-12-07T16:06:50;2.72;;;1.42;;
12059;SDS011;6091;51.432;6.880;2022-12-07T16:09:17;2.38;;;0.95;;
12059;SDS011;6091;51.432;6.880;2022-12-07T16:11:45;1.33;;;1.20;;
12059;SDS011;6091;51.432;6.880;2022-12-07T16:14:12;2.10;;;1.30;;
12059;SDS011;6091;51.432;6.880;2022-12-07T16:16:39;2.00;;;1.20;;
12059;SDS011;6091;51.432;6.880;2022-12-07T16:19:08;1.85;;;1.30;;
12059;SDS011;6091;51.432;6.880;2022-12-07T16:21:37;1.58;;;1.05;;
12059;SDS011;6091;51.432;6.880;2022-12-07T16:24:06;1.30;;;1.02;;
12059;SDS011;6091;51.432;6.880;2022-12-07T16:26:36;2.10;;;1.27;;
12059;SDS011;6091;51.432;6.880;2022-12-07T16:29:03;1.98;;;1.40;;
12059;SDS011;6091;51.432;6.880;2022-12-07T16:31:30;1.65;;;1.20;;
12059;SDS011;6091;51.432;6.880;2022-12-07T16:33:58;2.08;;;1.20;;
12059;SDS011;6091;51.432;6.880;2022-12-07T16:36:25;1.95;;;1.42;;
12059;SDS011;6091;51.432;6.880;2022-12-07T16:39:13;1.77;;;1.30;;
12059;SDS011;6091;51.432;6.880;2022-12-07T16:41:41;1.92;;;1.10;;
12059;SDS011;6091;51.432;6.880;2022-12-07T16:44:10;1.73;;;1.10;;
12059;SDS011;6091;51.432;6.880;2022-12-07T16:46:39;3.85;;;1.25;;
12059;SDS011;6091;51.432;6.880;2022-12-07T16:49:10;1.80;;;1.05;;
12059;SDS011;6091;51.432;6.880;2022-12-07T16:51:39;1.20;;;1.10;;
12059;SDS011;6091;51.432;6.880;2022-12-07T16:54:11;2.85;;;1.15;;
12059;SDS011;6091;51.432;6.880;2022-12-07T16:56:39;1.92;;;1.15;;
12059;SDS011;6091;51.432;6.880;2022-12-07T16:59:06;2.08;;;1.52;;
12059;SDS011;6091;51.432;6.880;2022-12-07T17:01:34;1.90;;;1.20;;
12059;SDS011;6091;51.432;6.880;2022-12-07T17:04:02;3.33;;;1.30;;
12059;SDS011;6091;51.432;6.880;2022-12-07T17:06:30;1.98;;;1.15;;
12059;SDS011;6091;51.432;6.880;2022-12-07T17:08:59;3.88;;;1.40;;
12059;SDS011;6091;51.432;6.880;2022-12-07T17:11:27;2.47;;;1.15;;
12059;SDS011;6091;51.432;6.880;2022-12-07T17:13:58;4.07;;;1.30;;
12059;SDS011;6091;51.432;6.880;2022-12-07T17:16:44;2.65;;;1.20;;
12059;SDS011;6091;51.432;6.880;2022-12-07T17:19:13;2.25;;;1.17;;
12059;SDS011;6091;51.432;6.880;2022-12-07T17:21:46;4.10;;;1.30;;
12059;SDS011;6091;51.432;6.880;2022-12-07T17:24:16;2.78;;;1.30;;
12059;SDS011;6091;51.432;6.880;2022-12-07T17:26:44;1.77;;;1.27;;
12059;SDS011;6091;51.432;6.880;2022-12-07T17:29:13;1.70;;;1.25;;
12059;SDS011;6091;51.432;6.880;2022-12-07T17:31:42;2.80;;;1.45;;
12059;SDS011;6091;51.432;6.880;2022-12-07T17:34:16;2.35;;;1.42;;
12059;SDS011;6091;51.432;6.880;2022-12-07T17:36:44;4.05;;;1.70;;
12059;SDS011;6091;51.432;6.880;2022-12-07T17:39:13;2.60;;;1.10;;
12059;SDS011;6091;51.432;6.880;2022-12-07T17:41:43;3.38;;;1.30;;
12059;SDS011;6091;51.432;6.880;2022-12-07T17:44:29;2.58;;;1.08;;
12059;SDS011;6091;51.432;6.880;2022-12-07T17:46:57;1.75;;;1.30;;
12059;SDS011;6091;51.432;6.880;2022-12-07T17:49:25;3.00;;;1.35;;
12059;SDS011;6091;51.432;6.880;2022-12-07T17:51:55;2.53;;;1.10;;
12059;SDS011;6091;51.432;6.880;2022-12-07T17:54:40;1.60;;;1.38;;
12059;SDS011;6091;51.432;6.880;2022-12-07T17:57:08;3.50;;;1.20;;
12059;SDS011;6091;51.432;6.880;2022-12-07T17:59:35;1.48;;;1.00;;
12059;SDS011;6091;51.432;6.880;2022-12-07T18:02:02;1.55;;;1.10;;
12059;SDS011;6091;51.432;6.880;2022-12-07T18:04:29;1.85;;;1.20;;
12059;SDS011;6091;51.432;6.880;2022-12-07T18:06:56;3.30;;;1.35;;